Time;durP1;ratioP1;P1;durP2;ratioP2;P2;SDS_P1;SDS_P2;PMS_P1;PMS_P2;Temp;Humidity;BMP_temperature;BMP_pressure;BME280_temperature;BME280_humidity;BME280_pressure;Samples;Min_cycle;Max_cycle;Signal;HPM_P1;HPM_P2
2023/07/26 00:02:15;;;;;;;5.05;3.40;;;;;;;17.53;100.00;98457.41;5055302;28;20075;-83
2023/07/26 00:04:40;;;;;;;5.60;3.38;;;;;;;17.50;100.00;98460.31;5055119;28;20029;-83
2023/07/26 00:07:05;;;;;;;5.95;3.45;;;;;;;17.45;100.00;98462.56;5055161;28;20075;-83
2023/07/26 00:09:31;;;;;;;3.20;3.00;;;;;;;17.42;100.00;98461.03;5055206;28;20036;-83
2023/07/26 00:11:56;;;;;;;3.83;3.10;;;;;;;17.40;100.00;98459.50;5055220;28;20070;-83
2023/07/26 00:14:21;;;;;;;3.78;3.42;;;;;;;17.33;100.00;98454.00;5055243;28;20051;-83
2023/07/26 00:16:49;;;;;;;3.78;3.20;;;;;;;17.38;100.00;98475.44;5036755;28;20052;-83
2023/07/26 00:19:15;;;;;;;4.80;3.03;;;;;;;17.21;100.00;98457.78;5054881;28;20086;-83
2023/07/26 00:21:41;;;;;;;4.75;2.95;;;;;;;17.21;100.00;98449.88;5036762;28;20028;-83
2023/07/26 00:24:06;;;;;;;5.50;3.70;;;;;;;17.09;100.00;98451.84;5055069;28;20036;-83
2023/07/26 00:26:31;;;;;;;3.80;3.40;;;;;;;17.07;100.00;98458.22;5054845;28;20032;-83
2023/07/26 00:28:57;;;;;;;5.65;2.90;;;;;;;17.20;100.00;98479.81;5054936;28;20056;-84
2023/07/26 00:31:22;;;;;;;4.03;3.13;;;;;;;17.07;100.00;98468.75;5054978;28;20111;-83
2023/07/26 00:33:47;;;;;;;3.90;3.28;;;;;;;17.09;100.00;98472.06;5054469;28;20798;-83
2023/07/26 00:36:13;;;;;;;3.55;2.67;;;;;;;17.16;100.00;98494.22;5054621;28;20017;-83
2023/07/26 00:38:38;;;;;;;3.22;2.92;;;;;;;17.19;100.00;98497.41;5054244;28;20112;-83
2023/07/26 00:41:05;;;;;;;4.57;2.78;;;;;;;17.10;100.00;98481.59;5054510;28;20058;-83
2023/07/26 00:43:31;;;;;;;3.83;2.75;;;;;;;17.07;100.00;98482.72;5054653;28;20040;-83
2023/07/26 00:45:56;;;;;;;3.33;3.00;;;;;;;17.15;100.00;98511.81;5054509;28;20472;-83
2023/07/26 00:48:22;;;;;;;3.63;2.90;;;;;;;17.00;100.00;98491.31;5054372;28;20105;-83
2023/07/26 00:50:47;;;;;;;5.72;3.38;;;;;;;17.13;100.00;98515.53;5053874;28;20075;-83
2023/07/26 00:53:14;;;;;;;3.72;2.90;;;;;;;17.04;100.00;98497.97;5054288;28;20037;-83
2023/07/26 00:55:40;;;;;;;5.13;3.13;;;;;;;16.95;100.00;98478.59;5054280;28;20625;-83
2023/07/26 00:58:06;;;;;;;3.75;2.63;;;;;;;16.93;100.00;98480.53;5054828;28;20033;-83
2023/07/26 01:00:31;;;;;;;3.03;2.53;;;;;;;16.80;100.00;98465.03;5054000;28;20146;-83
2023/07/26 01:02:57;;;;;;;6.78;3.40;;;;;;;16.82;100.00;98478.06;5054482;28;20063;-83
2023/07/26 01:05:27;;;;;;;3.67;2.90;;;;;;;16.85;100.00;98499.63;5054175;28;20382;-83
2023/07/26 01:08:18;;;;;;;3.15;2.55;;;;;;;16.78;100.00;98509.06;5054052;28;20066;-83
2023/07/26 01:11:11;;;;;;;4.57;3.13;;;;;;;16.78;100.00;98510.84;5053900;28;20477;-83
2023/07/26 01:13:59;;;;;;;2.72;2.50;;;;;;;16.74;100.00;98510.31;5053754;28;20051;-83
2023/07/26 01:16:25;;;;;;;3.08;2.67;;;;;;;16.60;100.00;98498.38;5053767;28;20542;-83
2023/07/26 01:18:50;;;;;;;2.67;2.42;;;;;;;16.60;100.00;98501.00;5053787;28;20029;-83
2023/07/26 01:21:16;;;;;;;5.15;2.95;;;;;;;16.54;100.00;98493.66;5053739;28;20025;-83
2023/07/26 01:23:41;;;;;;;2.75;2.30;;;;;;;16.56;100.00;98502.25;5053536;28;20376;-83
2023/07/26 01:26:06;;;;;;;4.32;3.15;;;;;;;16.48;100.00;98488.97;5053737;28;20037;-83
2023/07/26 01:28:32;;;;;;;3.45;2.83;;;;;;;16.42;100.00;98487.69;5053485;28;20067;-83
2023/07/26 01:31:01;;;;;;;3.60;2.78;;;;;;;16.63;100.00;98523.53;5053815;28;20037;-83
2023/07/26 01:33:29;;;;;;;3.67;2.97;;;;;;;16.50;100.00;98494.88;5053738;28;20025;-83
2023/07/26 01:35:55;;;;;;;3.75;2.65;;;;;;;16.52;100.00;98515.78;5053383;28;20236;-83
2023/07/26 01:38:21;;;;;;;4.78;2.95;;;;;;;16.56;100.00;98525.03;5053414;28;20021;-83
2023/07/26 01:40:47;;;;;;;3.55;3.25;;;;;;;16.54;100.00;98512.06;5053067;28;20469;-83
2023/07/26 01:43:13;;;;;;;5.22;2.92;;;;;;;16.39;100.00;98484.50;5053379;28;20033;-83
2023/07/26 01:45:38;;;;;;;4.00;3.22;;;;;;;16.53;100.00;98513.03;5053205;28;20025;-83
2023/07/26 01:48:04;;;;;;;3.35;3.05;;;;;;;16.35;100.00;98499.72;5053522;28;20079;-83
2023/07/26 01:50:29;;;;;;;4.20;2.97;;;;;;;16.38;100.00;98499.44;5053417;28;20032;-83
2023/07/26 01:52:54;;;;;;;6.68;3.88;;;;;;;16.44;100.00;98524.38;5053002;28;20070;-83
2023/07/26 01:55:20;;;;;;;3.53;2.97;;;;;;;16.38;100.00;98517.00;5053252;28;20491;-83
2023/07/26 01:57:45;;;;;;;4.03;3.33;;;;;;;16.45;100.00;98534.72;5052788;28;20029;-83
2023/07/26 02:00:10;;;;;;;4.07;3.55;;;;;;;16.34;100.00;98515.63;5053174;28;20434;-83
2023/07/26 02:02:36;;;;;;;5.80;4.07;;;;;;;16.27;100.00;98509.25;5052221;28;20025;-83
2023/07/26 02:05:01;;;;;;;5.90;3.80;;;;;;;16.29;100.00;98526.53;5052935;28;20033;-83
2023/07/26 02:07:27;;;;;;;5.30;3.85;;;;;;;16.21;100.00;98513.22;5035027;28;20025;-83
2023/07/26 02:09:52;;;;;;;4.82;3.20;;;;;;;16.19;100.00;98510.75;5052570;28;20116;-83
2023/07/26 02:12:17;;;;;;;7.28;4.63;;;;;;;16.18;100.00;98516.97;5053050;28;20021;-83
2023/07/26 02:14:43;;;;;;;6.80;4.00;;;;;;;16.24;100.00;98522.66;5052808;28;20032;-83
2023/07/26 02:17:08;;;;;;;5.13;3.67;;;;;;;16.17;100.00;98517.91;5052713;28;20063;-83
2023/07/26 02:19:33;;;;;;;5.50;4.05;;;;;;;16.26;100.00;98539.09;5052672;28;20443;-83
2023/07/26 02:21:58;;;;;;;5.50;4.15;;;;;;;16.16;100.00;98521.53;5052501;28;20525;-83
2023/07/26 02:24:24;;;;;;;5.03;3.92;;;;;;;16.31;100.00;98550.06;5052565;28;20124;-83
2023/07/26 02:26:49;;;;;;;5.38;4.85;;;;;;;16.11;100.00;98528.97;5052257;28;20105;-83
2023/07/26 02:29:15;;;;;;;6.40;4.35;;;;;;;16.23;100.00;98540.22;5052681;28;20461;-83
2023/07/26 02:31:40;;;;;;;5.32;4.78;;;;;;;16.17;100.00;98538.94;5052406;28;20047;-83
2023/07/26 02:34:05;;;;;;;6.70;4.65;;;;;;;16.07;100.00;98519.72;5052797;28;20025;-83
2023/07/26 02:36:30;;;;;;;6.75;4.97;;;;;;;15.89;100.00;98501.13;5052558;28;20056;-83
2023/07/26 02:38:56;;;;;;;5.07;4.57;;;;;;;16.08;100.00;98539.75;5052349;28;20074;-83
2023/07/26 02:41:21;;;;;;;6.57;4.38;;;;;;;16.07;100.00;98539.88;5052592;28;20079;-83
2023/07/26 02:43:46;;;;;;;6.00;4.53;;;;;;;16.10;100.00;98544.88;5052053;28;20048;-83
2023/07/26 02:46:12;;;;;;;6.53;4.68;;;;;;;15.98;100.00;98531.00;5052389;28;20021;-83
2023/07/26 02:48:37;;;;;;;6.20;4.78;;;;;;;16.07;100.00;98545.97;5052195;28;20051;-83
2023/07/26 02:51:02;;;;;;;5.40;4.85;;;;;;;16.19;100.00;98562.47;5052293;28;20102;-83
2023/07/26 02:53:28;;;;;;;5.68;4.55;;;;;;;16.21;100.00;98581.53;5034300;28;20028;-83
2023/07/26 02:55:53;;;;;;;6.32;5.00;;;;;;;16.20;100.00;98574.63;5051926;28;20107;-83
2023/07/26 02:58:18;;;;;;;7.00;4.90;;;;;;;16.23;100.00;98574.38;5052332;28;20035;-83
2023/07/26 03:00:44;;;;;;;8.52;5.70;;;;;;;16.03;100.00;98554.25;5051767;28;20431;-83
2023/07/26 03:03:09;;;;;;;5.57;4.90;;;;;;;16.04;100.00;98551.47;5052395;28;20032;-83
2023/07/26 03:05:38;;;;;;;7.22;4.97;;;;;;;16.10;100.00;98574.59;5052293;28;20036;-83
2023/07/26 03:08:04;;;;;;;6.20;4.68;;;;;;;16.08;100.00;98579.16;5051984;28;20053;-83
2023/07/26 03:10:29;;;;;;;5.85;4.70;;;;;;;16.07;100.00;98577.50;5051876;28;20445;-83
2023/07/26 03:12:55;;;;;;;6.90;4.95;;;;;;;16.06;100.00;98573.22;5052179;28;20048;-83
2023/07/26 03:15:20;;;;;;;5.47;4.55;;;;;;;15.96;100.00;98562.63;5051816;28;20484;-84
2023/07/26 03:17:45;;;;;;;6.93;4.47;;;;;;;15.99;100.00;98573.88;5051610;28;20076;-83
2023/07/26 03:20:11;;;;;;;5.93;5.25;;;;;;;16.10;100.00;98595.63;5051625;28;20115;-83
2023/07/26 03:22:36;;;;;;;6.40;5.20;;;;;;;16.04;100.00;98584.78;5051796;28;20049;-83
2023/07/26 03:25:02;;;;;;;5.25;4.78;;;;;;;16.06;100.00;98586.34;5051501;28;20021;-84
2023/07/26 03:27:27;;;;;;;5.13;4.63;;;;;;;16.07;100.00;98606.38;5051669;28;20036;-83
2023/07/26 03:29:52;;;;;;;7.30;5.10;;;;;;;16.08;100.00;98608.03;5051689;28;20118;-83
2023/07/26 03:32:18;;;;;;;5.38;4.50;;;;;;;15.93;100.00;98581.31;5051754;28;20025;-83
2023/07/26 03:34:43;;;;;;;5.88;4.47;;;;;;;16.08;100.00;98609.84;5033756;28;20145;-83
2023/07/26 03:37:10;;;;;;;6.32;4.35;;;;;;;16.12;100.00;98616.50;5051705;28;20036;-83
2023/07/26 03:39:35;;;;;;;5.15;4.25;;;;;;;16.07;100.00;98614.25;5051561;28;20111;-83
2023/07/26 03:42:00;;;;;;;5.72;5.10;;;;;;;15.95;100.00;98591.66;5051373;28;20171;-83
2023/07/26 03:44:26;;;;;;;5.90;5.30;;;;;;;16.05;100.00;98615.34;5051800;28;20029;-83
2023/07/26 03:46:51;;;;;;;5.65;5.07;;;;;;;15.91;100.00;98601.59;5051469;28;20029;-83
2023/07/26 03:49:16;;;;;;;6.32;5.30;;;;;;;15.90;100.00;98607.81;5051589;28;20350;-83
2023/07/26 03:51:42;;;;;;;5.50;4.90;;;;;;;15.98;100.00;98627.34;5051335;28;20032;-83
2023/07/26 03:54:07;;;;;;;7.50;5.22;;;;;;;15.94;100.00;98624.97;5051504;28;20416;-83
2023/07/26 03:56:32;;;;;;;5.63;5.00;;;;;;;15.82;100.00;98609.44;5051369;28;20028;-83
2023/07/26 03:58:58;;;;;;;5.68;5.18;;;;;;;16.02;100.00;98642.72;5051573;28;20104;-83
2023/07/26 04:01:23;;;;;;;5.78;5.07;;;;;;;15.90;100.00;98628.84;5051541;28;20399;-83
2023/07/26 04:03:49;;;;;;;7.18;5.43;;;;;;;15.94;100.00;98645.16;5051375;28;20021;-83
2023/07/26 04:06:14;;;;;;;6.50;5.20;;;;;;;15.84;100.00;98629.34;5051425;28;20033;-83
2023/07/26 04:08:40;;;;;;;7.15;5.90;;;;;;;15.85;100.00;98640.69;5051677;28;20025;-83
2023/07/26 04:11:06;;;;;;;7.68;5.55;;;;;;;16.04;100.00;98671.47;5051012;28;20044;-83
2023/07/26 04:13:33;;;;;;;6.20;5.63;;;;;;;15.94;100.00;98653.03;5033654;28;20463;-83
2023/07/26 04:15:59;;;;;;;5.88;5.25;;;;;;;15.89;100.00;98644.72;5051068;28;20427;-84
2023/07/26 04:18:25;;;;;;;5.05;4.55;;;;;;;15.95;100.00;98652.06;5051360;28;20122;-83
2023/07/26 04:20:50;;;;;;;6.43;5.65;;;;;;;16.01;100.00;98662.03;5050875;28;20052;-84
2023/07/26 04:23:15;;;;;;;7.03;6.32;;;;;;;15.95;100.00;98655.53;5051469;28;20021;-84
2023/07/26 04:25:41;;;;;;;6.05;5.47;;;;;;;16.10;100.00;98681.47;5052346;28;20036;-84
2023/07/26 04:28:06;;;;;;;6.60;5.43;;;;;;;16.05;100.00;98684.47;5054725;28;20032;-83
2023/07/26 04:30:31;;;;;;;6.22;5.65;;;;;;;16.04;100.00;98680.19;5054966;28;20029;-83
2023/07/26 04:32:57;;;;;;;5.82;5.22;;;;;;;16.08;100.00;98692.09;5054537;28;20031;-83
2023/07/26 04:35:22;;;;;;;5.93;5.30;;;;;;;16.07;100.00;98695.69;5054726;28;20457;-83
2023/07/26 04:37:47;;;;;;;7.95;5.68;;;;;;;15.99;100.00;98687.63;5054289;28;20021;-83
2023/07/26 04:40:12;;;;;;;6.47;5.75;;;;;;;16.06;100.00;98699.28;5054495;28;20086;-83
2023/07/26 04:42:38;;;;;;;7.28;6.00;;;;;;;15.90;100.00;98677.91;5054661;28;20067;-83
2023/07/26 04:45:03;;;;;;;5.88;5.20;;;;;;;15.98;100.00;98682.50;5054727;28;20203;-83
2023/07/26 04:47:29;;;;;;;6.35;5.65;;;;;;;16.02;100.00;98695.25;5054433;28;20112;-83
2023/07/26 04:49:54;;;;;;;6.20;5.65;;;;;;;16.05;100.00;98702.84;5054220;28;20094;-83
2023/07/26 04:52:19;;;;;;;6.70;6.05;;;;;;;16.07;100.00;98716.69;5054403;28;20098;-83
2023/07/26 04:54:45;;;;;;;5.90;5.30;;;;;;;16.08;100.00;98713.09;5054191;28;20401;-83
2023/07/26 04:57:10;;;;;;;7.22;5.65;;;;;;;15.87;100.00;98678.97;5054512;28;20040;-83
2023/07/26 04:59:36;;;;;;;6.82;6.22;;;;;;;15.99;100.00;98713.88;5054357;28;20040;-83
2023/07/26 05:02:01;;;;;;;6.30;5.65;;;;;;;15.95;100.00;98700.16;5054284;28;20033;-83
2023/07/26 05:04:26;;;;;;;6.78;6.07;;;;;;;16.02;100.00;98716.25;5054197;28;20482;-83
2023/07/26 05:06:51;;;;;;;5.95;5.40;;;;;;;15.94;100.00;98698.50;5053814;28;20507;-83
2023/07/26 05:09:17;;;;;;;5.80;5.22;;;;;;;16.05;100.00;98723.03;5053913;28;20064;-83
2023/07/26 05:11:42;;;;;;;6.32;5.78;;;;;;;15.98;100.00;98729.78;5054481;28;20025;-83
2023/07/26 05:14:07;;;;;;;5.88;5.38;;;;;;;15.99;100.00;98719.13;5053922;28;20025;-83
2023/07/26 05:16:33;;;;;;;6.65;6.05;;;;;;;16.08;100.00;98730.66;5053885;28;20049;-83
2023/07/26 05:18:59;;;;;;;4.72;4.30;;;;;;;16.00;100.00;98723.41;5053703;28;20032;-83
2023/07/26 05:21:25;;;;;;;6.10;5.50;;;;;;;15.96;100.00;98728.09;5053829;28;20037;-83
2023/07/26 05:23:50;;;;;;;5.65;5.15;;;;;;;16.12;100.00;98753.09;5053586;28;20029;-83
2023/07/26 05:26:16;;;;;;;5.90;5.25;;;;;;;16.08;100.00;98749.06;5054342;28;20115;-83
2023/07/26 05:28:41;;;;;;;9.57;5.60;;;;;;;16.00;100.00;98733.09;5053817;28;20029;-83
2023/07/26 05:31:06;;;;;;;5.82;5.22;;;;;;;16.07;100.00;98750.03;5053366;28;20232;-83
2023/07/26 05:33:32;;;;;;;7.35;5.38;;;;;;;15.89;100.00;98715.63;5053583;28;20021;-83
2023/07/26 05:35:58;;;;;;;5.32;4.82;;;;;;;15.98;100.00;98735.03;5053468;28;20515;-83
2023/07/26 05:38:23;;;;;;;5.95;5.22;;;;;;;16.15;100.00;98766.81;5052768;28;20064;-83
2023/07/26 05:40:48;;;;;;;5.60;4.20;;;;;;;15.96;100.00;98725.47;5053105;28;20036;-83
2023/07/26 05:43:14;;;;;;;5.75;5.15;;;;;;;16.16;100.00;98763.22;5053567;28;20396;-83
2023/07/26 05:45:42;;;;;;;6.65;5.47;;;;;;;16.19;100.00;98770.00;5053317;28;20063;-83
2023/07/26 05:48:07;;;;;;;5.20;4.70;;;;;;;16.09;100.00;98763.84;5053156;28;20025;-83
2023/07/26 05:50:33;;;;;;;5.43;4.47;;;;;;;16.06;100.00;98754.44;5053318;28;20489;-83
2023/07/26 05:52:58;;;;;;;5.55;4.72;;;;;;;16.02;100.00;98745.16;5052909;28;20021;-83
2023/07/26 05:55:24;;;;;;;6.70;5.85;;;;;;;16.08;100.00;98773.53;5053159;28;20385;-83
2023/07/26 05:57:49;;;;;;;5.00;4.50;;;;;;;16.10;100.00;98765.53;5053073;28;20465;-83
2023/07/26 06:00:15;;;;;;;5.35;4.80;;;;;;;16.16;100.00;98772.88;5053039;28;20025;-83
2023/07/26 06:02:41;;;;;;;5.50;5.00;;;;;;;16.05;100.00;98757.19;5053120;28;20116;-83
2023/07/26 06:05:07;;;;;;;4.45;4.05;;;;;;;16.20;100.00;98784.81;5052778;28;20025;-83
2023/07/26 06:07:32;;;;;;;5.82;4.82;;;;;;;16.05;100.00;98765.06;5052833;28;20067;-83
2023/07/26 06:09:57;;;;;;;5.30;4.85;;;;;;;16.20;100.00;98790.06;5052648;28;20479;-83
2023/07/26 06:12:22;;;;;;;5.13;4.63;;;;;;;16.21;100.00;98794.34;5052925;28;20469;-83
2023/07/26 06:14:48;;;;;;;6.57;5.15;;;;;;;16.08;100.00;98772.69;5052766;28;20032;-83
2023/07/26 06:17:13;;;;;;;5.40;4.90;;;;;;;16.22;100.00;98803.88;5052618;28;20380;-83
2023/07/26 06:19:38;;;;;;;6.22;4.50;;;;;;;16.26;100.00;98805.31;5052824;28;20032;-83
2023/07/26 06:22:05;;;;;;;6.05;4.93;;;;;;;16.24;100.00;98801.16;5052403;28;20035;-83
2023/07/26 06:24:30;;;;;;;6.30;4.70;;;;;;;16.26;100.00;98810.56;5052708;28;20040;-83
2023/07/26 06:26:56;;;;;;;5.30;4.75;;;;;;;16.23;100.00;98805.56;5052746;28;20033;-83
2023/07/26 06:29:21;;;;;;;5.22;4.82;;;;;;;16.36;100.00;98815.91;5052636;28;20472;-83
2023/07/26 06:31:48;;;;;;;4.32;3.92;;;;;;;16.33;100.00;98801.22;5052539;28;20155;-83
2023/07/26 06:34:13;;;;;;;4.85;4.45;;;;;;;16.38;100.00;98799.03;5052516;28;20029;-83
2023/07/26 06:36:38;;;;;;;4.68;4.22;;;;;;;16.56;100.00;98819.44;5052291;28;20492;-83
2023/07/26 06:39:04;;;;;;;4.22;3.83;;;;;;;16.46;100.00;98798.38;5052032;28;20037;-83
2023/07/26 06:41:29;;;;;;;4.90;4.38;;;;;;;16.54;100.00;98806.44;5052533;28;20477;-83
2023/07/26 06:43:55;;;;;;;4.85;4.38;;;;;;;16.64;100.00;98825.75;5052224;28;20025;-83
2023/07/26 06:46:20;;;;;;;4.88;4.00;;;;;;;16.61;100.00;98819.94;5052406;28;20032;-84
2023/07/26 06:48:46;;;;;;;4.90;4.40;;;;;;;16.50;100.00;98801.59;5034167;28;20029;-84
2023/07/26 06:51:11;;;;;;;5.55;4.05;;;;;;;16.57;100.00;98813.25;5034032;28;20039;-84
2023/07/26 06:53:36;;;;;;;5.15;3.83;;;;;;;16.54;100.00;98819.59;5051960;28;20024;-84
2023/07/26 06:56:02;;;;;;;4.32;3.92;;;;;;;16.63;100.00;98816.19;5052018;28;20025;-83
2023/07/26 06:58:27;;;;;;;4.03;3.70;;;;;;;16.78;100.00;98834.31;5052175;28;20021;-84
2023/07/26 07:00:54;;;;;;;4.28;3.97;;;;;;;16.87;100.00;98846.66;5052014;28;20029;-84
2023/07/26 07:03:20;;;;;;;3.75;3.40;;;;;;;16.87;100.00;98844.88;5051934;28;20021;-84
2023/07/26 07:05:45;;;;;;;3.60;3.30;;;;;;;16.75;100.00;98832.75;5051959;28;20033;-84
2023/07/26 07:08:11;;;;;;;5.00;4.15;;;;;;;16.69;100.00;98830.63;5051669;28;20091;-84
2023/07/26 07:10:36;;;;;;;3.65;3.35;;;;;;;16.80;100.00;98848.97;5052083;28;20035;-84
2023/07/26 07:13:01;;;;;;;4.00;3.70;;;;;;;16.70;100.00;98838.38;5051816;28;20021;-84
2023/07/26 07:15:27;;;;;;;4.90;3.97;;;;;;;16.76;100.00;98846.72;5051974;28;20028;-84
2023/07/26 07:17:52;;;;;;;4.13;3.80;;;;;;;16.85;100.00;98853.84;5051615;28;20045;-84
2023/07/26 07:20:17;;;;;;;3.58;3.28;;;;;;;16.74;100.00;98838.97;5051403;28;20037;-84
2023/07/26 07:22:43;;;;;;;5.13;3.72;;;;;;;16.72;100.00;98843.50;5051717;28;20025;-84
2023/07/26 07:25:09;;;;;;;4.65;3.30;;;;;;;16.78;100.00;98856.16;5049798;28;20060;-84
2023/07/26 07:27:34;;;;;;;4.68;4.25;;;;;;;16.74;100.00;98853.94;5051566;28;20495;-84
2023/07/26 07:30:01;;;;;;;4.50;4.10;;;;;;;16.80;100.00;98867.38;5033413;28;20028;-84
2023/07/26 07:32:26;;;;;;;3.80;3.50;;;;;;;16.84;100.00;98878.47;5051472;28;20021;-84
2023/07/26 07:34:51;;;;;;;4.22;3.83;;;;;;;16.82;100.00;98875.97;5033240;28;20043;-84
2023/07/26 07:37:17;;;;;;;4.13;3.80;;;;;;;16.87;100.00;98878.22;5051231;28;20029;-84
2023/07/26 07:39:42;;;;;;;4.20;3.53;;;;;;;16.73;100.00;98850.47;5051227;28;20063;-83
2023/07/26 07:42:07;;;;;;;4.88;4.15;;;;;;;16.80;100.00;98866.53;5051225;28;20021;-84
2023/07/26 07:44:33;;;;;;;4.93;4.38;;;;;;;16.79;100.00;98863.09;5051402;28;20059;-84
2023/07/26 07:46:58;;;;;;;5.57;4.85;;;;;;;16.87;100.00;98886.13;5050872;28;20029;-84
2023/07/26 07:49:23;;;;;;;6.05;4.50;;;;;;;16.89;100.00;98887.63;5051382;28;20040;-85
2023/07/26 07:51:50;;;;;;;4.90;4.28;;;;;;;16.97;100.00;98897.50;5033173;28;20424;-85
2023/07/26 07:54:15;;;;;;;5.13;4.70;;;;;;;16.98;100.00;98899.19;5050882;28;20036;-85
2023/07/26 07:56:41;;;;;;;6.50;4.70;;;;;;;16.98;100.00;98885.19;5051326;28;20021;-82
2023/07/26 07:59:06;;;;;;;7.82;5.45;;;;;;;17.00;100.00;98896.44;5050436;28;20119;-84
2023/07/26 08:01:32;;;;;;;5.13;3.65;;;;;;;16.87;100.00;98858.00;5053999;28;20112;-83
2023/07/26 08:03:59;;;;;;;6.25;5.07;;;;;;;16.91;100.00;98859.41;5054902;28;20029;-84
2023/07/26 08:06:25;;;;;;;6.80;4.10;;;;;;;17.02;100.00;98884.78;5055108;28;20071;-84
2023/07/26 08:08:52;;;;;;;5.85;4.78;;;;;;;17.04;100.00;98896.03;5055034;28;20037;-84
2023/07/26 08:11:17;;;;;;;5.68;5.13;;;;;;;17.04;100.00;98888.13;5055418;28;20029;-84
2023/07/26 08:13:43;;;;;;;4.63;4.20;;;;;;;17.05;100.00;98889.78;5036971;28;20036;-84
2023/07/26 08:16:09;;;;;;;6.10;5.22;;;;;;;17.03;100.00;98880.38;5054486;28;20111;-83
2023/07/26 08:18:37;;;;;;;6.97;5.47;;;;;;;16.88;100.00;98870.19;5054777;28;20100;-83
2023/07/26 08:21:03;;;;;;;5.45;5.03;;;;;;;16.95;100.00;98899.44;5054130;28;20029;-84
2023/07/26 08:23:30;;;;;;;6.05;5.35;;;;;;;16.88;100.00;98900.91;5054927;28;20032;-84
2023/07/26 08:25:55;;;;;;;7.03;6.20;;;;;;;16.71;100.00;98881.28;5036817;28;20029;-84
2023/07/26 08:28:21;;;;;;;7.10;6.05;;;;;;;16.74;100.00;98894.19;5054444;28;20021;-84
2023/07/26 08:30:46;;;;;;;6.50;5.93;;;;;;;16.62;100.00;98884.69;5053490;28;20063;-84
2023/07/26 08:33:12;;;;;;;7.53;6.45;;;;;;;16.71;100.00;98899.69;5052522;28;20029;-84
2023/07/26 08:35:37;;;;;;;7.10;6.35;;;;;;;16.67;100.00;98893.84;5054231;28;20108;-84
2023/07/26 08:38:03;;;;;;;8.10;6.32;;;;;;;16.75;100.00;98902.94;5053133;28;20465;-84
2023/07/26 08:40:29;;;;;;;6.90;6.30;;;;;;;16.82;100.00;98901.44;5051310;28;20084;-84
2023/07/26 08:42:56;;;;;;;8.25;6.80;;;;;;;16.88;100.00;98900.91;5052718;28;20036;-84
2023/07/26 08:45:22;;;;;;;9.15;6.68;;;;;;;16.95;100.00;98902.91;5052833;28;20051;-84
2023/07/26 08:47:49;;;;;;;9.10;6.40;;;;;;;17.03;100.00;98902.25;5052787;28;20029;-84
2023/07/26 08:50:14;;;;;;;6.78;6.15;;;;;;;17.12;100.00;98898.84;5053542;28;20040;-84
2023/07/26 08:52:40;;;;;;;7.38;6.57;;;;;;;17.27;100.00;98901.09;5054142;28;20117;-84
2023/07/26 08:55:07;;;;;;;7.15;5.63;;;;;;;17.54;100.00;98911.91;5053622;28;20475;-85
2023/07/26 08:57:33;;;;;;;8.75;6.03;;;;;;;17.82;100.00;98917.41;5053953;28;20021;-84
2023/07/26 08:59:58;;;;;;;6.50;5.90;;;;;;;17.89;100.00;98911.44;5053969;28;20039;-85
2023/07/26 09:02:25;;;;;;;7.57;5.32;;;;;;;18.15;100.00;98906.50;5053755;28;20025;-85
2023/07/26 09:04:51;;;;;;;10.02;7.18;;;;;;;18.48;100.00;98917.59;5035576;28;20445;-85
2023/07/26 09:07:16;;;;;;;6.75;5.40;;;;;;;18.69;100.00;98901.63;5053652;28;20068;-85
2023/07/26 09:09:42;;;;;;;8.88;6.25;;;;;;;18.90;100.00;98904.13;5054112;28;20029;-86
2023/07/26 09:12:07;;;;;;;5.65;5.15;;;;;;;19.17;100.00;98933.22;5053592;28;20032;-86
2023/07/26 09:14:34;;;;;;;5.97;5.25;;;;;;;19.40;100.00;98951.34;5053762;28;20035;-86
2023/07/26 09:17:01;;;;;;;7.95;4.90;;;;;;;19.37;100.00;98928.69;5053634;28;20449;-86
2023/07/26 09:19:34;;;;;;;5.75;4.32;;;;;;;19.52;100.00;98944.06;5053293;28;20027;-86
2023/07/26 09:22:04;;;;;;;4.60;4.10;;;;;;;19.57;100.00;98961.13;5053785;28;20029;-85
2023/07/26 09:24:40;;;;;;;5.20;4.22;;;;;;;19.40;100.00;98964.53;5053475;28;20037;-86
2023/07/26 09:27:10;;;;;;;4.43;3.97;;;;;;;19.33;100.00;98948.44;5053026;28;20491;-85
2023/07/26 09:29:41;;;;;;;4.65;3.58;;;;;;;19.59;100.00;98960.97;5053290;28;20496;-85
2023/07/26 09:32:07;;;;;;;5.05;4.00;;;;;;;19.59;99.78;98937.22;5053102;28;20056;-86
2023/07/26 09:34:33;;;;;;;5.63;3.60;;;;;;;19.71;99.71;98928.16;5052841;28;20067;-86
2023/07/26 09:36:59;;;;;;;5.15;3.88;;;;;;;20.06;98.17;98945.91;5053048;28;20032;-85
2023/07/26 09:39:27;;;;;;;5.75;3.80;;;;;;;20.11;97.72;98927.78;5048231;28;20387;-85
2023/07/26 09:42:08;;;;;;;5.28;3.88;;;;;;;20.47;97.93;98943.63;5015518;28;20025;-86
2023/07/26 09:44:35;;;;;;;4.93;3.33;;;;;;;20.47;92.30;98930.41;5051504;28;20507;-86
2023/07/26 09:47:02;;;;;;;4.32;3.03;;;;;;;20.61;91.33;98943.16;5053139;28;20036;-86
2023/07/26 09:49:29;;;;;;;5.60;3.28;;;;;;;20.58;91.55;98946.09;5036952;28;20087;-85
2023/07/26 09:51:57;;;;;;;5.43;3.15;;;;;;;20.64;91.74;98936.72;5056508;28;20032;-88
2023/07/26 09:54:28;;;;;;;7.60;3.40;;;;;;;20.68;91.15;98930.94;5053636;28;20029;-89
2023/07/26 09:56:57;;;;;;;3.97;2.50;;;;;;;20.89;89.65;98950.97;5053290;28;20072;-90
2023/07/26 09:59:28;;;;;;;7.43;2.80;;;;;;;20.88;86.95;98944.00;5037572;28;20083;-81
2023/07/26 10:01:54;;;;;;;4.33;2.90;;;;;;;20.75;85.95;98927.72;5056038;28;20021;-84
2023/07/26 10:04:39;;;;;;;5.82;2.90;;;;;;;20.76;85.63;98950.53;5034187;28;20043;-81
2023/07/26 10:07:09;;;;;;;5.72;2.72;;;;;;;20.61;86.94;98951.09;5035138;28;20040;-84
2023/07/26 10:09:35;;;;;;;7.90;3.85;;;;;;;20.59;87.56;98955.69;5034269;28;20128;-80
2023/07/26 10:12:02;;;;;;;4.57;2.80;;;;;;;20.52;86.60;98953.78;5033741;28;20083;-82
2023/07/26 10:14:30;;;;;;;3.08;2.78;;;;;;;20.27;88.30;98921.81;5030638;28;20033;-84
2023/07/26 10:16:58;;;;;;;4.00;2.60;;;;;;;20.41;88.35;98931.03;5030843;28;20540;-83
2023/07/26 10:19:26;;;;;;;5.43;2.38;;;;;;;20.53;88.06;98940.44;5030061;28;20037;-83
2023/07/26 10:21:52;;;;;;;6.65;3.08;;;;;;;20.53;87.65;98935.16;5030439;28;20038;-84
2023/07/26 10:24:19;;;;;;;3.75;2.47;;;;;;;20.61;86.77;98955.56;5029478;28;20524;-84
2023/07/26 10:26:46;;;;;;;8.13;2.78;;;;;;;20.52;82.09;98945.84;5030510;28;20037;-84
2023/07/26 10:29:12;;;;;;;3.85;2.47;;;;;;;20.54;82.33;98931.50;5030258;28;20033;-84
2023/07/26 10:31:38;;;;;;;2.80;2.50;;;;;;;20.60;81.18;98922.94;5030409;28;20156;-82
2023/07/26 10:34:03;;;;;;;4.22;2.35;;;;;;;20.72;80.45;98934.13;5030243;28;20040;-83
2023/07/26 10:36:30;;;;;;;2.50;2.15;;;;;;;20.81;79.78;98943.78;5033400;28;20043;-84
2023/07/26 10:38:56;;;;;;;5.18;2.33;;;;;;;20.91;80.75;98955.13;5053842;28;20025;-83
2023/07/26 10:41:26;;;;;;;3.63;2.10;;;;;;;20.85;77.45;98939.84;5052474;28;20029;-87
2023/07/26 10:44:02;;;;;;;3.03;1.77;;;;;;;20.88;77.30;98954.59;5034517;28;20036;-87
2023/07/26 10:46:28;;;;;;;5.28;2.38;;;;;;;20.74;79.48;98934.00;5052065;28;20578;-86
2023/07/26 10:48:53;;;;;;;4.05;2.63;;;;;;;20.66;78.26;98916.22;5052018;28;20060;-84
2023/07/26 10:51:23;;;;;;;5.10;2.58;;;;;;;20.95;77.59;98958.31;5052054;28;20431;-84
2023/07/26 10:53:49;;;;;;;4.63;2.10;;;;;;;20.94;76.21;98943.38;5052177;28;20029;-83
2023/07/26 10:56:31;;;;;;;5.22;1.90;;;;;;;21.07;73.80;98948.28;5051840;28;20028;-83
2023/07/26 10:59:23;;;;;;;3.03;1.80;;;;;;;20.97;73.47;98950.19;5051864;28;20407;-83
2023/07/26 11:01:48;;;;;;;3.70;1.92;;;;;;;20.85;75.56;98929.25;5052410;28;20032;-88
2023/07/26 11:04:19;;;;;;;6.43;2.42;;;;;;;20.87;72.82;98931.78;5052145;28;20025;-85
2023/07/26 11:06:52;;;;;;;3.00;2.03;;;;;;;20.85;73.86;98955.72;5052222;28;20043;-86
2023/07/26 11:09:21;;;;;;;5.88;2.20;;;;;;;20.74;74.21;98949.88;5051629;28;20095;-86
2023/07/26 11:12:00;;;;;;;5.80;2.17;;;;;;;20.60;75.26;98941.47;5051746;28;20031;-85
2023/07/26 11:14:28;;;;;;;3.25;1.85;;;;;;;20.62;75.19;98950.09;5051807;28;20376;-86
2023/07/26 11:16:54;;;;;;;3.38;2.03;;;;;;;20.47;74.81;98926.94;5052068;28;20048;-86
2023/07/26 11:19:19;;;;;;;2.10;1.90;;;;;;;20.65;74.04;98955.09;5033905;28;20075;-86
2023/07/26 11:21:45;;;;;;;5.22;2.00;;;;;;;20.63;75.08;98945.63;5051857;28;20083;-86
2023/07/26 11:24:11;;;;;;;3.67;1.90;;;;;;;20.72;73.99;98959.75;5033886;28;20021;-86